createdAt,value
2022-08-29T00:01:38.778Z,3.40
2022-08-29T00:06:42.090Z,3.63
2022-08-29T00:11:46.811Z,3.30
2022-08-29T00:16:49.865Z,3.40
2022-08-29T00:21:53.802Z,3.60
2022-08-29T00:27:00.307Z,3.13
2022-08-29T00:32:03.675Z,3.20
2022-08-29T00:37:06.745Z,3.13
2022-08-29T00:42:24.134Z,3.57
2022-08-29T00:47:33.032Z,2.93
2022-08-29T00:52:40.801Z,3.77
2022-08-29T00:57:48.007Z,3.30
2022-08-29T01:02:51.456Z,3.50
2022-08-29T01:07:54.565Z,3.20
2022-08-29T01:12:59.029Z,3.53
2022-08-29T01:18:03.881Z,3.00
2022-08-29T01:23:14.720Z,3.37
2022-08-29T01:28:22.899Z,3.03
2022-08-29T01:38:59.799Z,3.43
2022-08-29T01:44:10.294Z,3.27
2022-08-29T01:49:13.784Z,4.40
2022-08-29T01:54:17.901Z,3.50
2022-08-29T01:59:25.475Z,4.30
2022-08-29T02:04:28.497Z,3.67
2022-08-29T02:09:31.892Z,4.03
2022-08-29T02:14:37.319Z,3.67
2022-08-29T02:19:40.579Z,4.07
2022-08-29T02:24:43.915Z,4.07
2022-08-29T02:29:48.227Z,3.50
2022-08-29T02:34:51.181Z,3.47
2022-08-29T02:39:54.150Z,3.33
2022-08-29T02:44:58.657Z,4.10
2022-08-29T02:50:01.603Z,3.70
2022-08-29T02:55:04.987Z,3.30
2022-08-29T03:00:12.600Z,3.70
2022-08-29T03:05:16.152Z,3.73
2022-08-29T03:10:20.191Z,3.77
2022-08-29T03:15:24.614Z,3.97
2022-08-29T03:20:28.103Z,3.67
2022-08-29T03:25:31.637Z,3.87
2022-08-29T03:30:36.143Z,4.00
2022-08-29T03:35:39.140Z,3.70
2022-08-29T03:40:43.264Z,3.97
2022-08-29T03:45:47.674Z,4.47
2022-08-29T03:50:55.803Z,4.10
2022-08-29T03:55:59.503Z,3.70
2022-08-29T04:01:03.898Z,4.50
2022-08-29T04:06:07.173Z,4.73
2022-08-29T04:11:11.229Z,3.93
2022-08-29T04:16:19.525Z,4.07
2022-08-29T04:21:22.574Z,4.23
2022-08-29T04:26:41.004Z,3.97
2022-08-29T04:31:45.764Z,4.20
2022-08-29T04:36:48.786Z,5.07
2022-08-29T04:41:51.800Z,4.40
2022-08-29T04:46:56.351Z,4.70
2022-08-29T04:51:59.663Z,4.20
2022-08-29T04:57:03.632Z,4.90
2022-08-29T05:02:09.444Z,4.40
2022-08-29T05:07:12.465Z,4.50
2022-08-29T05:12:15.801Z,4.27
2022-08-29T05:17:20.153Z,4.40
2022-08-29T05:22:23.643Z,6.27
2022-08-29T05:27:26.847Z,4.33
2022-08-29T05:32:31.260Z,3.70
2022-08-29T05:37:34.341Z,4.20
2022-08-29T05:42:37.406Z,3.40
2022-08-29T05:47:41.780Z,4.00
2022-08-29T05:52:45.676Z,4.10
2022-08-29T05:57:50.122Z,3.97
2022-08-29T06:02:54.966Z,4.10
2022-08-29T06:07:58.057Z,3.80
2022-08-29T06:13:01.593Z,4.10
2022-08-29T06:18:06.215Z,3.37
2022-08-29T06:23:09.249Z,3.70
2022-08-29T06:28:12.684Z,4.67
2022-08-29T06:33:28.573Z,3.80
2022-08-29T06:38:31.684Z,3.67
2022-08-29T06:43:34.889Z,3.90
2022-08-29T06:48:39.249Z,4.17
2022-08-29T06:53:42.541Z,3.83
2022-08-29T06:58:46.122Z,3.87
2022-08-29T07:03:51.373Z,3.47
2022-08-29T07:08:56.254Z,4.63
2022-08-29T07:14:01.569Z,4.90
2022-08-29T07:19:08.081Z,4.20
2022-08-29T07:24:11.174Z,3.90
2022-08-29T07:29:18.755Z,3.93
2022-08-29T07:34:23.118Z,4.40
2022-08-29T07:39:26.096Z,4.37
2022-08-29T07:44:34.452Z,4.80
2022-08-29T07:49:41.866Z,4.80
2022-08-29T07:54:45.085Z,4.27
2022-08-29T07:59:48.099Z,4.70
2022-08-29T08:04:52.625Z,4.57
2022-08-29T08:09:55.710Z,4.73
2022-08-29T08:14:59.060Z,4.30
2022-08-29T08:20:03.928Z,4.43
2022-08-29T08:25:08.039Z,4.70
2022-08-29T08:30:11.718Z,4.53
2022-08-29T08:35:19.726Z,4.50
2022-08-29T08:40:26.855Z,4.50
2022-08-29T08:45:35.272Z,4.20
2022-08-29T08:50:47.635Z,4.77
2022-08-29T08:55:56.179Z,4.17
2022-08-29T09:01:03.526Z,4.40
2022-08-29T09:06:15.808Z,3.60
2022-08-29T09:11:28.145Z,4.17
2022-08-29T09:16:36.989Z,4.40
2022-08-29T09:21:48.397Z,3.70
2022-08-29T09:26:51.412Z,3.73
2022-08-29T09:32:10.464Z,4.33
2022-08-29T09:37:24.293Z,4.60
2022-08-29T09:42:33.784Z,4.20
2022-08-29T09:47:36.820Z,4.40
2022-08-29T09:52:52.270Z,4.23
2022-08-29T09:57:58.586Z,4.30
2022-08-29T10:03:04.363Z,4.47
2022-08-29T10:08:25.640Z,3.77
2022-08-29T10:13:36.214Z,4.50
2022-08-29T10:18:48.207Z,3.53
2022-08-29T10:24:06.303Z,3.50
2022-08-29T10:29:20.127Z,4.20
2022-08-29T10:34:39.964Z,3.70
2022-08-29T10:39:54.965Z,3.80
2022-08-29T10:45:13.281Z,4.20
2022-08-29T10:50:42.933Z,4.10
2022-08-29T10:55:55.691Z,4.53
2022-08-29T11:01:08.884Z,4.17
2022-08-29T11:06:16.876Z,4.10
2022-08-29T11:11:30.200Z,4.77
2022-08-29T11:16:38.353Z,3.90
2022-08-29T11:21:45.640Z,4.13
2022-08-29T11:26:59.842Z,4.27
2022-08-29T11:32:09.626Z,4.50
2022-08-29T11:37:48.092Z,3.67
2022-08-29T11:42:54.194Z,3.80
2022-08-29T11:48:03.402Z,4.10
2022-08-29T11:53:16.687Z,3.70
2022-08-29T11:58:46.082Z,3.90
2022-08-29T12:03:49.402Z,3.80
2022-08-29T12:09:02.876Z,3.63
2022-08-29T12:14:09.035Z,3.67
2022-08-29T12:19:12.078Z,3.10
2022-08-29T12:24:30.632Z,2.50
2022-08-29T12:29:44.460Z,3.10
2022-08-29T12:35:18.176Z,3.30
2022-08-29T12:40:51.692Z,3.50
2022-08-29T12:45:56.823Z,3.07
2022-08-29T12:51:00.855Z,2.80
2022-08-29T12:56:14.476Z,3.10
2022-08-29T13:01:27.736Z,2.70
2022-08-29T13:06:31.934Z,3.03
2022-08-29T13:11:36.027Z,3.37
2022-08-29T13:16:40.984Z,3.27
2022-08-29T13:21:44.049Z,3.10
2022-08-29T13:27:01.065Z,3.53
2022-08-29T13:32:28.178Z,3.10
2022-08-29T13:37:33.617Z,3.17
2022-08-29T13:42:44.987Z,3.70
2022-08-29T13:47:59.092Z,3.20
2022-08-29T13:53:02.175Z,3.10
2022-08-29T13:58:05.569Z,2.57
2022-08-29T14:03:12.277Z,3.00
2022-08-29T14:08:15.548Z,3.40
2022-08-29T14:13:18.707Z,3.30
2022-08-29T14:18:23.093Z,3.40
2022-08-29T14:23:26.097Z,3.17
2022-08-29T14:28:29.134Z,3.27
2022-08-29T14:33:33.521Z,2.93
2022-08-29T14:38:37.342Z,3.20
2022-08-29T14:43:40.390Z,3.10
2022-08-29T14:48:44.739Z,2.93
2022-08-29T14:53:54.200Z,2.93
2022-08-29T14:58:58.329Z,3.47
2022-08-29T15:04:03.131Z,3.07
2022-08-29T15:09:06.688Z,3.10
2022-08-29T15:14:09.824Z,2.70
2022-08-29T15:19:45.169Z,3.10
2022-08-29T15:24:38.412Z,3.60
2022-08-29T15:29:41.665Z,3.03
2022-08-29T15:34:46.274Z,2.47
2022-08-29T15:39:50.000Z,2.50
2022-08-29T15:44:57.697Z,3.17
2022-08-29T15:50:03.492Z,2.20
2022-08-29T15:55:07.843Z,2.97
2022-08-29T16:00:12.180Z,2.87
2022-08-29T16:05:21.573Z,3.00
2022-08-29T16:10:24.922Z,2.70
2022-08-29T16:15:31.060Z,3.00
2022-08-29T16:20:37.935Z,3.30
2022-08-29T16:25:42.186Z,3.17
2022-08-29T16:30:49.727Z,3.20
2022-08-29T16:35:54.281Z,2.87
2022-08-29T16:40:57.324Z,2.63
2022-08-29T16:46:00.473Z,3.17
2022-08-29T16:51:05.067Z,2.57
2022-08-29T16:56:10.434Z,3.37
2022-08-29T17:01:16.061Z,3.10
2022-08-29T17:06:20.500Z,4.07
2022-08-29T17:11:22.463Z,3.20
2022-08-29T17:16:25.348Z,2.80
2022-08-29T17:21:31.849Z,3.07
2022-08-29T17:26:36.578Z,3.00
2022-08-29T17:31:44.013Z,3.23
2022-08-29T17:36:49.735Z,4.90
2022-08-29T17:41:53.143Z,2.97
2022-08-29T17:46:56.348Z,2.70
2022-08-29T17:52:00.790Z,5.40
2022-08-29T17:57:04.868Z,3.13
2022-08-29T18:02:08.494Z,2.83
2022-08-29T18:07:12.927Z,4.13
2022-08-29T18:12:16.138Z,6.90
2022-08-29T18:17:19.226Z,3.20
2022-08-29T18:22:23.700Z,3.63
2022-08-29T18:27:27.986Z,3.80
2022-08-29T18:32:34.750Z,3.97
2022-08-29T18:37:42.075Z,4.57
2022-08-29T18:42:45.271Z,3.30
2022-08-29T18:47:48.329Z,3.90
2022-08-29T18:52:52.745Z,6.10
2022-08-29T18:57:56.576Z,4.30
2022-08-29T19:03:01.707Z,4.40
2022-08-29T19:08:06.432Z,4.77
2022-08-29T19:13:09.481Z,5.17
2022-08-29T19:18:14.562Z,3.80
2022-08-29T19:23:21.201Z,9.60
2022-08-29T19:28:24.282Z,4.60
2022-08-29T19:33:27.269Z,4.03
2022-08-29T19:38:31.949Z,4.33
2022-08-29T19:43:35.846Z,5.17
2022-08-29T19:48:38.929Z,5.07
2022-08-29T19:53:43.951Z,4.50
2022-08-29T19:58:49.525Z,4.53
2022-08-29T20:03:52.817Z,4.60
2022-08-29T20:08:58.544Z,5.10
2022-08-29T20:14:03.817Z,5.30
2022-08-29T20:19:06.928Z,4.87
2022-08-29T20:24:15.457Z,4.97
2022-08-29T20:29:20.680Z,5.57
2022-08-29T20:34:28.339Z,5.90
2022-08-29T20:39:32.739Z,5.63
2022-08-29T20:44:39.179Z,5.63
2022-08-29T20:49:43.884Z,6.20
2022-08-29T20:54:48.547Z,5.80
2022-08-29T20:59:51.554Z,5.70
2022-08-29T21:05:12.087Z,5.60
2022-08-29T21:10:17.592Z,5.70
2022-08-29T21:15:20.560Z,6.57
2022-08-29T21:20:23.591Z,5.93
2022-08-29T21:25:27.979Z,5.70
2022-08-29T21:30:31.105Z,5.67
2022-08-29T21:35:34.087Z,6.00
2022-08-29T21:40:50.079Z,6.00
2022-08-29T21:45:53.702Z,5.60
2022-08-29T21:50:57.416Z,5.73
2022-08-29T21:56:01.747Z,6.00
2022-08-29T22:01:06.012Z,6.80
2022-08-29T22:06:11.290Z,5.60
2022-08-29T22:11:19.254Z,5.97
2022-08-29T22:16:32.327Z,6.37
2022-08-29T22:21:37.957Z,6.67
2022-08-29T22:26:43.836Z,5.73
2022-08-29T22:31:47.269Z,6.57
2022-08-29T22:36:50.260Z,6.23
2022-08-29T22:41:55.318Z,5.83
2022-08-29T22:46:58.682Z,6.87
2022-08-29T22:52:02.251Z,5.97
2022-08-29T22:57:09.949Z,4.87
2022-08-29T23:02:13.798Z,5.50
2022-08-29T23:07:17.039Z,5.93
2022-08-29T23:12:21.476Z,6.53
2022-08-29T23:17:24.469Z,6.23
2022-08-29T23:22:27.821Z,5.87
2022-08-29T23:27:33.539Z,6.07
2022-08-29T23:32:36.593Z,5.53
2022-08-29T23:37:39.567Z,6.20
2022-08-29T23:42:43.926Z,6.20
2022-08-29T23:47:46.903Z,5.70
2022-08-29T23:52:49.870Z,6.20
2022-08-29T23:57:54.234Z,6.10
